Cold Bay Airport (CDB/PACD)




Flight Aircraft Arriving
GRZ5367 B722
B738
PANC - Ted Stevens Anchorage International Airport
United StatesAlaska Anchorage, Alaska
GRZ5371 SF34
PAKN - King Salmon Airport
United StatesAlaska King Salmon, Alaska
GRZ5372 SF34
PADU - Unalaska Airport
United StatesAlaska Unalaska, Alaska
GRZ5374 SF34
PASD - Sand Point Airport
United StatesAlaska Sand Point, Alaska
GRZ5385 SF34
PANC - Ted Stevens Anchorage International Airport
United StatesAlaska Anchorage, Alaska
Flight Aircraft Departing
GRZ5366 B722
B738
PANC - Ted Stevens Anchorage International Airport
United StatesAlaska Anchorage, Alaska
GRZ5370 SF34
PAKN - King Salmon Airport
United StatesAlaska King Salmon, Alaska
GRZ5373 SF34
PADU - Unalaska Airport
United StatesAlaska Unalaska, Alaska
GRZ5375 SF34
PASD - Sand Point Airport
United StatesAlaska Sand Point, Alaska
GRZ5384 SF34
PANC - Ted Stevens Anchorage International Airport
United StatesAlaska Anchorage, Alaska
Airport Information
Location: Cold Bay, US
Coordinates: 55.2059 / -162.726
Elevation:
Time Offset:
Local Time:
UTC Time:
Jet A Price: $0.89/lbs

Current Weather
METAR: PACD 021608Z 14025G35KT 1/2SM FG VV002 10/10 A3015 RMK AO2 PK WND 14035/1600 T01000100
TAF: PACD 021302Z 0213/0312 14025G35KT 6SM -RA BR OVC004 TEMPO 0213/0217 2SM BR FM030300 16015KT 4SM -RA BR OVC005

Recent Arrivals
Date Flight Type Depart
Recent Departures
Date Flight Type Arrive